createdAt,value
2023-02-13T00:01:13.145Z,45.00
2023-02-13T00:03:41.446Z,47.30
2023-02-13T00:06:10.554Z,49.10
2023-02-13T00:08:38.920Z,50.20
2023-02-13T00:11:07.668Z,45.20
2023-02-13T00:13:36.361Z,44.00
2023-02-13T00:16:05.152Z,43.40
2023-02-13T00:18:38.471Z,42.60
2023-02-13T00:21:10.119Z,42.30
2023-02-13T00:25:30.413Z,40.80
2023-02-13T00:27:58.334Z,42.90
2023-02-13T00:30:26.711Z,47.30
2023-02-13T00:32:54.920Z,44.40
2023-02-13T00:35:25.181Z,42.90
2023-02-13T00:37:53.611Z,42.30
2023-02-13T00:40:26.049Z,41.60
2023-02-13T00:42:54.095Z,41.10
2023-02-13T00:45:22.175Z,40.50
2023-02-13T00:47:50.486Z,40.00
2023-02-13T00:50:21.957Z,39.70
2023-02-13T00:52:50.173Z,39.30
2023-02-13T00:55:20.881Z,38.60
2023-02-13T00:57:49.236Z,38.30
2023-02-13T01:00:17.830Z,38.10
2023-02-13T01:02:45.834Z,37.50
2023-02-13T01:05:14.707Z,37.00
2023-02-13T01:07:43.038Z,36.60
2023-02-13T01:10:11.680Z,36.90
2023-02-13T01:12:39.798Z,39.40
2023-02-13T01:15:08.680Z,38.20
2023-02-13T01:17:36.919Z,37.90
2023-02-13T01:20:05.308Z,40.20
2023-02-13T01:22:33.847Z,44.80
2023-02-13T01:25:02.377Z,46.80
2023-02-13T01:27:32.685Z,47.70
2023-02-13T01:30:00.516Z,43.80
2023-02-13T01:32:28.724Z,42.90
2023-02-13T01:34:56.904Z,41.80
2023-02-13T01:37:25.100Z,41.20
2023-02-13T01:39:53.298Z,40.50
2023-02-13T01:42:29.963Z,40.20
2023-02-13T01:45:00.286Z,39.70
2023-02-13T01:47:39.919Z,39.20
2023-02-13T01:50:17.778Z,38.90
2023-02-13T01:52:55.672Z,38.30
2023-02-13T01:55:25.981Z,38.10
2023-02-13T01:58:03.490Z,38.00
2023-02-13T02:00:32.055Z,37.30
2023-02-13T02:03:08.133Z,37.30
2023-02-13T02:05:37.869Z,37.20
2023-02-13T02:08:09.442Z,38.90
2023-02-13T02:10:39.770Z,38.80
2023-02-13T02:13:18.528Z,38.20
2023-02-13T02:15:48.019Z,39.10
2023-02-13T02:18:21.484Z,44.70
2023-02-13T02:21:29.428Z,47.10
2023-02-13T02:24:18.129Z,49.20
2023-02-13T02:27:12.346Z,50.50
2023-02-13T02:30:15.513Z,51.30
2023-02-13T02:32:57.199Z,46.30
2023-02-13T02:35:48.610Z,44.90
2023-02-13T02:38:51.928Z,43.90
2023-02-13T02:41:47.448Z,42.80
2023-02-13T02:44:44.144Z,41.90
2023-02-13T02:47:15.345Z,41.40
2023-02-13T02:49:50.916Z,40.70
2023-02-13T02:52:27.315Z,40.30
2023-02-13T02:55:18.717Z,39.90
2023-02-13T02:58:16.827Z,39.50
2023-02-13T03:00:45.433Z,38.90
2023-02-13T03:03:24.841Z,38.40
2023-02-13T03:05:55.295Z,37.80
2023-02-13T03:08:23.599Z,37.70
2023-02-13T03:10:51.868Z,37.00
2023-02-13T03:13:46.548Z,37.00
2023-02-13T03:16:21.508Z,40.00
2023-02-13T03:18:56.735Z,44.50
2023-02-13T03:21:43.623Z,46.70
2023-02-13T03:24:26.502Z,48.80
2023-02-13T03:27:15.877Z,49.90
2023-02-13T03:30:08.133Z,49.40
2023-02-13T03:32:42.550Z,45.20
2023-02-13T03:35:28.391Z,44.30
2023-02-13T03:38:03.812Z,49.60
2023-02-13T03:40:59.502Z,52.30
2023-02-13T03:43:35.365Z,52.30
2023-02-13T03:46:04.668Z,48.40
2023-02-13T03:48:38.470Z,46.60
2023-02-13T03:51:09.157Z,45.20
2023-02-13T03:53:40.377Z,44.50
2023-02-13T03:56:11.888Z,43.40
2023-02-13T03:58:45.493Z,42.70
2023-02-13T04:01:17.601Z,42.10
2023-02-13T04:03:55.038Z,41.50
2023-02-13T04:06:26.804Z,41.00
2023-02-13T04:08:55.042Z,40.50
2023-02-13T04:11:27.791Z,40.00
2023-02-13T04:14:13.128Z,39.60
2023-02-13T04:16:46.336Z,39.20
2023-02-13T04:19:16.148Z,39.00
2023-02-13T04:21:44.370Z,38.40
2023-02-13T04:24:12.594Z,38.20
2023-02-13T04:26:44.035Z,38.00
2023-02-13T04:29:12.216Z,38.00
2023-02-13T04:31:40.582Z,37.90
2023-02-13T04:34:08.842Z,38.00
2023-02-13T04:36:37.113Z,37.60
2023-02-13T04:39:05.573Z,37.30
2023-02-13T04:41:33.858Z,37.10
2023-02-13T04:44:02.084Z,36.70
2023-02-13T04:46:30.261Z,36.20
2023-02-13T04:48:58.479Z,37.40
2023-02-13T04:51:26.677Z,41.00
2023-02-13T04:53:55.010Z,44.70
2023-02-13T04:56:23.097Z,47.10
2023-02-13T04:58:51.317Z,49.10
2023-02-13T05:01:19.682Z,50.40
2023-02-13T05:03:48.127Z,51.30
2023-02-13T05:06:16.347Z,51.80
2023-02-13T05:08:44.616Z,51.00
2023-02-13T05:11:12.833Z,47.20
2023-02-13T05:13:41.045Z,46.40
2023-02-13T05:16:09.386Z,50.30
2023-02-13T05:18:37.848Z,54.20
2023-02-13T05:21:06.386Z,54.80
2023-02-13T05:23:34.708Z,54.50
2023-02-13T05:26:03.448Z,52.60
2023-02-13T05:28:31.371Z,49.00
2023-02-13T05:30:59.873Z,47.60
2023-02-13T05:33:28.422Z,46.70
2023-02-13T05:35:56.589Z,45.60
2023-02-13T05:38:24.833Z,44.70
2023-02-13T05:40:53.083Z,44.10
2023-02-13T05:43:21.539Z,43.30
2023-02-13T05:45:49.883Z,42.60
2023-02-13T05:48:17.933Z,42.00
2023-02-13T05:50:48.010Z,41.10
2023-02-13T05:53:16.185Z,41.10
2023-02-13T05:55:44.333Z,40.80
2023-02-13T05:58:12.510Z,40.80
2023-02-13T06:00:40.789Z,40.20
2023-02-13T06:03:09.001Z,40.00
2023-02-13T06:05:37.372Z,40.00
2023-02-13T06:08:05.867Z,39.10
2023-02-13T06:10:34.201Z,38.10
2023-02-13T06:13:02.598Z,38.10
2023-02-13T06:15:30.792Z,40.70
2023-02-13T06:17:59.181Z,44.30
2023-02-13T06:20:27.531Z,46.90
2023-02-13T06:22:56.074Z,48.80
2023-02-13T06:25:24.644Z,50.40
2023-02-13T06:27:52.826Z,51.70
2023-02-13T06:30:21.645Z,52.50
2023-02-13T06:32:49.713Z,53.00
2023-02-13T06:35:18.058Z,52.60
2023-02-13T06:37:46.505Z,48.80
2023-02-13T06:40:16.337Z,47.20
2023-02-13T06:42:45.635Z,50.70
2023-02-13T06:45:14.822Z,54.60
2023-02-13T06:47:47.890Z,56.00
2023-02-13T06:50:17.458Z,55.30
2023-02-13T06:52:50.584Z,54.80
2023-02-13T06:55:19.535Z,50.40
2023-02-13T06:57:48.128Z,48.80
2023-02-13T07:00:17.161Z,47.60
2023-02-13T07:02:47.316Z,46.80
2023-02-13T07:05:16.266Z,45.90
2023-02-13T07:07:44.419Z,44.80
2023-02-13T07:10:14.533Z,44.10
2023-02-13T07:12:43.080Z,43.60
2023-02-13T07:15:12.655Z,45.80
2023-02-13T07:17:40.975Z,45.50
2023-02-13T07:20:10.212Z,44.60
2023-02-13T07:22:38.358Z,43.80
2023-02-13T07:25:07.052Z,43.20
2023-02-13T07:27:35.168Z,44.30
2023-02-13T07:30:03.619Z,48.30
2023-02-13T07:32:31.791Z,52.60
2023-02-13T07:35:02.312Z,57.40
2023-02-13T07:37:32.353Z,60.30
2023-02-13T07:40:00.793Z,62.80
2023-02-13T07:42:29.138Z,63.90
2023-02-13T07:44:57.289Z,64.40
2023-02-13T07:47:25.514Z,65.60
2023-02-13T07:49:53.796Z,65.30
2023-02-13T07:52:22.003Z,58.10
2023-02-13T07:54:50.304Z,55.60
2023-02-13T07:57:18.574Z,53.70
2023-02-13T07:59:46.848Z,52.40
2023-02-13T08:02:16.125Z,51.00
2023-02-13T08:04:44.580Z,49.60
2023-02-13T08:07:13.385Z,48.40
2023-02-13T08:09:41.286Z,47.60
2023-02-13T08:12:10.827Z,47.10
2023-02-13T08:14:39.102Z,46.50
2023-02-13T08:17:07.568Z,46.10
2023-02-13T08:19:35.758Z,45.40
2023-02-13T08:22:03.835Z,45.40
2023-02-13T08:24:33.443Z,44.60
2023-02-13T08:27:01.683Z,44.40
2023-02-13T08:29:30.043Z,43.30
2023-02-13T08:31:58.258Z,43.20
2023-02-13T08:34:26.639Z,44.70
2023-02-13T08:36:54.882Z,46.00
2023-02-13T08:39:23.182Z,49.90
2023-02-13T08:41:51.525Z,52.70
2023-02-13T08:44:19.689Z,55.10
2023-02-13T08:46:47.923Z,56.90
2023-02-13T08:49:16.397Z,58.10
2023-02-13T08:51:44.711Z,59.50
2023-02-13T08:54:13.874Z,59.70
2023-02-13T08:56:43.478Z,57.70
2023-02-13T08:59:11.831Z,54.10
2023-02-13T09:01:40.151Z,52.60
2023-02-13T09:04:08.481Z,57.80
2023-02-13T09:06:36.701Z,61.40
2023-02-13T09:09:08.594Z,62.70
2023-02-13T09:11:37.754Z,62.70
2023-02-13T09:14:05.963Z,63.30
2023-02-13T09:16:34.283Z,58.60
2023-02-13T09:19:02.529Z,55.90
2023-02-13T09:21:30.888Z,54.40
2023-02-13T09:23:59.000Z,53.20
2023-02-13T09:26:27.317Z,51.90
2023-02-13T09:28:55.659Z,50.50
2023-02-13T09:31:26.719Z,49.30
2023-02-13T09:33:56.694Z,48.70
2023-02-13T09:36:25.503Z,48.00
2023-02-13T09:38:56.184Z,47.10
2023-02-13T09:41:28.382Z,46.70
2023-02-13T09:44:14.010Z,45.70
2023-02-13T09:46:44.000Z,45.10
2023-02-13T09:49:19.802Z,44.60
2023-02-13T09:51:55.002Z,44.20
2023-02-13T09:54:23.323Z,43.80
2023-02-13T09:57:08.534Z,43.70
2023-02-13T10:00:11.910Z,43.80
2023-02-13T10:02:59.643Z,42.70
2023-02-13T10:05:48.838Z,42.50
2023-02-13T10:08:38.285Z,41.90
2023-02-13T10:11:18.033Z,41.80
2023-02-13T10:14:12.463Z,41.50
2023-02-13T10:17:07.183Z,41.30
2023-02-13T10:20:04.801Z,41.00
2023-02-13T10:22:47.167Z,40.90
2023-02-13T10:25:41.047Z,40.60
2023-02-13T10:28:15.425Z,40.50
2023-02-13T10:30:57.129Z,40.40
2023-02-13T10:33:47.096Z,40.30
2023-02-13T10:36:26.061Z,39.90
2023-02-13T10:39:23.347Z,40.00
2023-02-13T10:42:00.249Z,40.20
2023-02-13T10:44:52.255Z,39.70
2023-02-13T10:47:26.157Z,39.70
2023-02-13T10:50:12.734Z,40.00
2023-02-13T10:52:55.748Z,41.50
2023-02-13T10:55:53.325Z,41.70
2023-02-13T10:58:50.865Z,41.30
2023-02-13T11:02:03.729Z,40.50
2023-02-13T11:04:32.820Z,42.60
2023-02-13T11:07:12.110Z,46.10
2023-02-13T11:09:44.485Z,49.50
2023-02-13T11:12:34.071Z,52.10
2023-02-13T11:15:08.428Z,54.10
2023-02-13T11:17:40.814Z,55.10
2023-02-13T11:20:27.062Z,55.60
2023-02-13T11:22:58.023Z,55.90
2023-02-13T11:25:28.563Z,51.20
2023-02-13T11:28:15.784Z,49.30
2023-02-13T11:30:47.078Z,51.60
2023-02-13T11:33:18.445Z,56.30
2023-02-13T11:35:48.227Z,57.60
2023-02-13T11:38:17.728Z,57.00
2023-02-13T11:40:48.886Z,55.50
2023-02-13T11:43:44.622Z,51.70
2023-02-13T11:46:25.170Z,50.60
2023-02-13T11:49:03.672Z,49.00
2023-02-13T11:51:47.140Z,48.00
2023-02-13T11:54:42.330Z,47.30
2023-02-13T11:57:24.626Z,46.80
2023-02-13T11:59:54.505Z,45.50
2023-02-13T12:02:31.731Z,44.90
2023-02-13T12:05:22.269Z,44.40
2023-02-13T12:07:51.072Z,43.90
2023-02-13T12:18:25.286Z,43.20
2023-02-13T12:25:03.946Z,43.70
2023-02-13T12:27:42.604Z,46.90
2023-02-13T12:30:10.993Z,46.00
2023-02-13T12:32:53.213Z,44.40
2023-02-13T12:35:42.817Z,43.60
2023-02-13T12:38:17.569Z,43.40
2023-02-13T12:41:03.880Z,43.10
2023-02-13T12:44:01.635Z,42.70
2023-02-13T12:50:53.608Z,42.70
2023-02-13T12:53:42.890Z,42.10
2023-02-13T12:56:33.502Z,41.80
2023-02-13T12:59:28.448Z,41.80
2023-02-13T13:02:27.666Z,41.80
2023-02-13T13:05:23.597Z,41.70
2023-02-13T13:07:58.422Z,41.10
2023-02-13T13:10:43.528Z,40.90
2023-02-13T13:13:17.622Z,41.00
2023-02-13T13:15:54.943Z,41.00
2023-02-13T13:18:34.869Z,40.40
2023-02-13T13:21:36.665Z,40.60
2023-02-13T13:24:32.993Z,40.90
2023-02-13T13:27:03.112Z,40.20
2023-02-13T13:30:20.876Z,40.30
2023-02-13T13:33:05.644Z,42.40
2023-02-13T13:35:35.304Z,41.60
2023-02-13T13:38:15.216Z,41.20
2023-02-13T13:41:21.754Z,44.10
2023-02-13T13:44:22.507Z,50.20
2023-02-13T13:47:06.551Z,53.00
2023-02-13T13:50:12.884Z,55.20
2023-02-13T13:53:00.982Z,56.10
2023-02-13T13:55:48.070Z,54.50
2023-02-13T13:58:47.050Z,50.40
2023-02-13T14:01:23.349Z,48.50
2023-02-13T14:03:59.433Z,47.80
2023-02-13T14:06:46.514Z,46.90
2023-02-13T14:09:41.886Z,45.90
2023-02-13T14:12:25.056Z,45.30
2023-02-13T14:14:57.594Z,45.30
2023-02-13T14:17:47.319Z,44.80
2023-02-13T14:20:33.500Z,44.10
2023-02-13T14:23:34.389Z,43.60
2023-02-13T14:26:17.824Z,43.40
2023-02-13T14:28:52.187Z,43.20
2023-02-13T14:31:39.202Z,43.00
2023-02-13T14:34:10.403Z,42.90
2023-02-13T14:36:42.618Z,42.70
2023-02-13T14:39:29.626Z,42.60
2023-02-13T14:42:01.659Z,42.70
2023-02-13T14:44:42.008Z,42.40
2023-02-13T14:47:31.143Z,42.40
2023-02-13T14:50:02.496Z,41.80
2023-02-13T14:52:39.436Z,41.70
2023-02-13T14:55:36.960Z,41.80
2023-02-13T14:58:32.284Z,41.70
2023-02-13T15:01:08.692Z,42.00
2023-02-13T15:03:49.235Z,42.00
2023-02-13T15:06:31.434Z,42.00
2023-02-13T15:09:03.423Z,41.60
2023-02-13T15:11:40.526Z,41.60
2023-02-13T15:14:30.878Z,41.30
2023-02-13T15:17:03.188Z,41.00
2023-02-13T15:19:31.537Z,41.10
2023-02-13T15:22:08.796Z,41.20
2023-02-13T15:24:47.524Z,40.60
2023-02-13T15:27:26.034Z,40.60
2023-02-13T15:29:55.280Z,40.50
2023-02-13T15:32:32.554Z,40.40
2023-02-13T15:35:01.204Z,40.00
2023-02-13T15:37:31.006Z,40.10
2023-02-13T15:40:22.228Z,40.20
2023-02-13T15:42:51.075Z,40.20
2023-02-13T15:45:19.813Z,39.90
2023-02-13T15:47:49.036Z,40.30
2023-02-13T15:50:23.419Z,39.80
2023-02-13T15:52:52.584Z,39.70
2023-02-13T15:55:22.041Z,39.70
2023-02-13T15:57:51.884Z,39.80
2023-02-13T16:00:42.210Z,39.30
2023-02-13T16:03:17.819Z,39.40
2023-02-13T16:05:47.742Z,40.00
2023-02-13T16:08:34.892Z,39.60
2023-02-13T16:11:23.622Z,39.30
2023-02-13T16:14:08.031Z,40.60
2023-02-13T16:16:48.506Z,40.50
2023-02-13T16:19:27.529Z,40.00
2023-02-13T16:21:57.783Z,40.00
2023-02-13T16:24:28.392Z,39.80
2023-02-13T16:26:57.096Z,39.90
2023-02-13T16:29:26.071Z,39.50
2023-02-13T16:32:03.268Z,39.20
2023-02-13T16:34:32.603Z,39.30
2023-02-13T16:37:00.946Z,38.80
2023-02-13T16:39:32.579Z,38.60
2023-02-13T16:42:01.822Z,38.80
2023-02-13T16:44:32.492Z,38.70
2023-02-13T16:47:05.536Z,38.60
2023-02-13T16:49:38.284Z,38.40
2023-02-13T16:52:20.733Z,38.00
2023-02-13T16:54:59.996Z,38.10
2023-02-13T16:57:35.542Z,38.00
2023-02-13T17:00:08.616Z,38.10
2023-02-13T17:02:38.751Z,38.00
2023-02-13T17:16:58.809Z,40.40
2023-02-13T17:19:26.781Z,44.40
2023-02-13T17:21:55.240Z,44.80
2023-02-13T17:24:23.514Z,43.10
2023-02-13T17:26:51.886Z,42.10
2023-02-13T17:29:20.070Z,41.50
2023-02-13T17:31:49.813Z,41.10
2023-02-13T17:34:18.232Z,40.50
2023-02-13T17:36:46.490Z,40.50
2023-02-13T17:39:14.794Z,39.80
2023-02-13T17:41:43.444Z,39.60
2023-02-13T17:44:14.567Z,39.80
2023-02-13T17:46:43.146Z,39.60
2023-02-13T17:49:11.321Z,39.20
2023-02-13T17:51:41.268Z,39.10
2023-02-13T17:54:12.230Z,38.50
2023-02-13T17:56:40.461Z,38.20
2023-02-13T17:59:08.598Z,38.10
2023-02-13T18:01:36.994Z,37.60
2023-02-13T18:04:05.209Z,37.50
2023-02-13T18:06:59.706Z,36.50
2023-02-13T18:09:27.915Z,37.70
2023-02-13T18:12:05.013Z,39.20
2023-02-13T18:14:35.050Z,38.20
2023-02-13T18:17:03.326Z,37.80
2023-02-13T18:19:31.622Z,37.90
2023-02-13T18:21:59.736Z,37.60
2023-02-13T18:24:32.724Z,37.50
2023-02-13T18:27:00.940Z,37.00
2023-02-13T18:29:29.199Z,37.20
2023-02-13T18:31:57.716Z,36.80
2023-02-13T18:34:26.308Z,36.70
2023-02-13T18:36:54.595Z,36.60
2023-02-13T18:39:22.826Z,36.00
2023-02-13T18:41:51.084Z,35.80
2023-02-13T18:44:28.173Z,36.00
2023-02-13T18:46:57.307Z,39.00
2023-02-13T18:49:25.485Z,37.70
2023-02-13T18:51:54.138Z,37.60
2023-02-13T18:56:34.012Z,40.40
2023-02-13T18:59:02.219Z,42.20
2023-02-13T19:01:30.610Z,44.20
2023-02-13T19:03:58.980Z,41.20
2023-02-13T19:06:27.217Z,40.60
2023-02-13T19:08:57.098Z,39.90
2023-02-13T19:11:27.170Z,39.50
2023-02-13T19:13:57.174Z,39.10
2023-02-13T19:16:25.639Z,38.90
2023-02-13T19:18:57.831Z,38.50
2023-02-13T19:21:28.732Z,38.50
2023-02-13T19:23:57.469Z,38.00
2023-02-13T19:26:26.672Z,38.00
2023-02-13T19:28:56.686Z,37.60
2023-02-13T19:31:30.923Z,37.10
2023-02-13T19:33:59.810Z,37.00
2023-02-13T19:36:29.559Z,36.80
2023-02-13T19:39:03.284Z,36.30
2023-02-13T19:41:32.297Z,36.40
2023-02-13T19:44:00.883Z,37.80
2023-02-13T19:46:31.273Z,38.00
2023-02-13T19:49:00.502Z,38.30
2023-02-13T19:51:30.718Z,43.20
2023-02-13T19:54:00.518Z,45.20
2023-02-13T19:56:30.195Z,45.50
2023-02-13T19:58:58.922Z,43.00
2023-02-13T20:01:29.604Z,42.00
2023-02-13T20:03:58.221Z,41.10
2023-02-13T20:06:35.807Z,40.60
2023-02-13T20:09:08.653Z,40.00
2023-02-13T20:11:36.996Z,40.00
2023-02-13T20:14:05.184Z,39.30
2023-02-13T20:16:34.271Z,38.80
2023-02-13T20:19:04.220Z,38.70
2023-02-13T20:21:34.198Z,38.30
2023-02-13T20:24:03.308Z,37.90
2023-02-13T20:26:32.012Z,38.40
2023-02-13T20:29:00.572Z,38.10
2023-02-13T20:31:29.225Z,37.70
2023-02-13T20:33:58.309Z,37.80
2023-02-13T20:36:32.867Z,39.90
2023-02-13T20:39:03.821Z,39.40
2023-02-13T20:41:35.009Z,38.80
2023-02-13T20:44:06.310Z,41.00
2023-02-13T20:46:36.691Z,43.40
2023-02-13T20:49:04.995Z,41.20
2023-02-13T20:51:33.586Z,40.50
2023-02-13T20:54:01.826Z,40.20
2023-02-13T20:56:30.668Z,40.00
2023-02-13T20:59:00.110Z,39.70
2023-02-13T21:01:34.524Z,39.50
2023-02-13T21:04:03.111Z,39.10
2023-02-13T21:06:34.843Z,39.00
2023-02-13T21:09:04.789Z,38.80
2023-02-13T21:11:33.625Z,38.40
2023-02-13T21:14:02.963Z,38.40
2023-02-13T21:16:34.058Z,37.90
2023-02-13T21:19:08.402Z,37.80
2023-02-13T21:50:11.085Z,40.90
2023-02-13T21:52:39.566Z,43.50
2023-02-13T21:55:08.889Z,43.70
2023-02-13T21:57:37.409Z,41.90
2023-02-13T22:00:06.928Z,41.00
2023-02-13T22:02:40.763Z,40.80
2023-02-13T22:05:09.509Z,40.20
2023-02-13T22:07:37.731Z,39.70
2023-02-13T22:10:06.324Z,39.30
2023-02-13T22:12:34.824Z,38.90
2023-02-13T22:15:03.248Z,38.50
2023-02-13T22:17:31.655Z,38.10
2023-02-13T22:19:59.998Z,37.90
2023-02-13T22:22:28.310Z,37.30
2023-02-13T22:24:56.723Z,36.90
2023-02-13T22:27:25.187Z,36.60
2023-02-13T22:29:53.452Z,36.20
2023-02-13T22:32:21.970Z,35.90
2023-02-13T22:34:50.367Z,37.70
2023-02-13T22:37:18.741Z,37.50
2023-02-13T22:39:47.994Z,37.20
2023-02-13T22:42:16.343Z,38.80
2023-02-13T22:44:44.768Z,42.40
2023-02-13T22:47:12.941Z,40.70
2023-02-13T22:49:41.648Z,39.70
2023-02-13T22:52:09.624Z,39.30
2023-02-13T22:54:38.700Z,39.00
2023-02-13T22:57:07.217Z,38.70
2023-02-13T22:59:35.531Z,38.30
2023-02-13T23:02:05.537Z,37.80
2023-02-13T23:04:34.111Z,37.60
2023-02-13T23:07:02.423Z,37.10
2023-02-13T23:09:30.581Z,36.60
2023-02-13T23:11:59.000Z,36.20
2023-02-13T23:14:27.329Z,35.90
2023-02-13T23:16:55.431Z,35.50
2023-02-13T23:19:23.925Z,37.10
2023-02-13T23:21:52.064Z,38.40
2023-02-13T23:24:20.492Z,37.70
2023-02-13T23:26:48.830Z,37.60
2023-02-13T23:29:17.598Z,40.60
2023-02-13T23:31:45.602Z,44.90
2023-02-13T23:34:14.114Z,47.00
2023-02-13T23:36:42.392Z,42.90
2023-02-13T23:39:10.748Z,41.60
2023-02-13T23:41:39.147Z,40.80
2023-02-13T23:44:07.582Z,40.10
2023-02-13T23:46:35.747Z,39.60
2023-02-13T23:49:06.563Z,39.30
2023-02-13T23:51:35.814Z,39.00
2023-02-13T23:54:04.023Z,38.50
2023-02-13T23:56:32.511Z,38.30
2023-02-13T23:59:00.734Z,37.90
